createdAt,value
2018-12-30T00:02:00.675Z,7.30
2018-12-30T00:04:50.573Z,7.30
2018-12-30T00:07:39.062Z,7.30
2018-12-30T00:10:27.216Z,7.30
2018-12-30T00:13:15.477Z,7.20
2018-12-30T00:16:03.837Z,7.20
2018-12-30T00:18:52.024Z,7.20
2018-12-30T00:21:40.213Z,7.20
2018-12-30T00:24:28.511Z,7.10
2018-12-30T00:27:16.973Z,7.20
2018-12-30T00:30:05.729Z,7.20
2018-12-30T00:32:54.170Z,7.20
2018-12-30T00:35:42.412Z,7.20
2018-12-30T00:38:30.952Z,7.10
2018-12-30T00:41:19.393Z,7.10
2018-12-30T00:44:09.385Z,7.10
2018-12-30T00:46:58.963Z,7.10
2018-12-30T00:52:49.596Z,7.10
2018-12-30T00:55:31.959Z,7.10
2018-12-30T00:58:12.848Z,7.10
2018-12-30T01:00:53.414Z,7.10
2018-12-30T01:03:34.877Z,7.10
2018-12-30T01:06:20.332Z,7.00
2018-12-30T01:08:50.523Z,7.10
2018-12-30T01:11:38.829Z,7.10
2018-12-30T01:14:27.163Z,7.10
2018-12-30T01:17:15.752Z,7.10
2018-12-30T01:20:04.215Z,7.20
2018-12-30T01:22:52.675Z,7.20
2018-12-30T01:25:41.263Z,7.20
2018-12-30T01:28:29.724Z,7.20
2018-12-30T01:31:17.996Z,7.20
2018-12-30T01:34:06.367Z,7.20
2018-12-30T01:36:54.631Z,7.20
2018-12-30T01:39:43.109Z,7.20
2018-12-30T01:42:31.343Z,7.20
2018-12-30T01:45:19.823Z,7.20
2018-12-30T01:48:08.115Z,7.20
2018-12-30T01:50:56.687Z,7.20
2018-12-30T01:53:45.028Z,7.20
2018-12-30T01:56:33.422Z,7.20
2018-12-30T01:59:21.852Z,7.20
2018-12-30T02:02:10.412Z,7.30
2018-12-30T02:04:58.595Z,7.30
2018-12-30T02:07:39.741Z,7.30
2018-12-30T02:10:21.275Z,7.20
2018-12-30T02:16:01.386Z,7.20
2018-12-30T02:18:42.195Z,7.20
2018-12-30T02:21:22.922Z,7.20
2018-12-30T02:24:03.295Z,7.10
2018-12-30T02:26:44.227Z,7.10
2018-12-30T02:29:25.204Z,7.10
2018-12-30T02:32:06.485Z,7.10
2018-12-30T02:34:47.795Z,7.20
2018-12-30T02:37:28.792Z,7.20
2018-12-30T02:40:10.377Z,7.20
2018-12-30T02:42:50.910Z,7.10
2018-12-30T02:45:31.655Z,7.10
2018-12-30T02:48:13.017Z,7.10
2018-12-30T02:50:52.888Z,7.00
2018-12-30T02:53:22.540Z,7.00
2018-12-30T02:56:11.081Z,7.00
2018-12-30T02:58:59.575Z,6.90
2018-12-30T03:01:48.091Z,7.00
2018-12-30T03:04:36.714Z,7.00
2018-12-30T03:10:24.761Z,7.00
2018-12-30T03:13:05.456Z,7.00
2018-12-30T03:15:45.862Z,7.10
2018-12-30T03:18:26.954Z,7.00
2018-12-30T03:21:01.014Z,7.00
2018-12-30T03:23:30.171Z,7.00
2018-12-30T03:26:18.324Z,7.00
2018-12-30T03:29:06.624Z,7.00
2018-12-30T03:31:48.098Z,7.00
2018-12-30T03:34:28.563Z,7.00
2018-12-30T03:37:09.372Z,7.00
2018-12-30T03:39:50.276Z,7.10
2018-12-30T03:42:31.414Z,7.00
2018-12-30T03:45:11.966Z,7.00
2018-12-30T03:47:53.289Z,7.00
2018-12-30T03:50:33.714Z,7.00
2018-12-30T03:53:14.533Z,7.00
2018-12-30T03:55:55.539Z,7.00
2018-12-30T03:58:36.422Z,7.00
2018-12-30T04:01:15.765Z,7.00
2018-12-30T04:04:03.959Z,7.00
2018-12-30T04:06:52.407Z,7.00
2018-12-30T04:09:40.707Z,7.00
2018-12-30T04:15:36.181Z,6.90
2018-12-30T04:18:24.377Z,7.00
2018-12-30T04:21:12.514Z,7.00
2018-12-30T04:24:00.889Z,7.00
2018-12-30T04:26:49.106Z,7.00
2018-12-30T04:29:37.366Z,7.00
2018-12-30T04:32:18.425Z,7.00
2018-12-30T04:34:59.369Z,7.00
2018-12-30T04:37:40.135Z,7.00
2018-12-30T04:40:20.539Z,7.00
2018-12-30T04:43:00.933Z,7.00
2018-12-30T04:45:41.757Z,7.00
2018-12-30T04:48:22.292Z,7.00
2018-12-30T04:51:02.684Z,7.00
2018-12-30T04:53:43.125Z,7.00
2018-12-30T04:56:23.661Z,7.00
2018-12-30T04:59:04.397Z,7.00
2018-12-30T05:01:45.241Z,7.00
2018-12-30T05:04:25.966Z,6.90
2018-12-30T05:07:06.889Z,7.00
2018-12-30T05:09:35.928Z,6.90
2018-12-30T05:12:24.074Z,7.00
2018-12-30T05:15:12.264Z,7.00
2018-12-30T05:21:07.698Z,7.00
2018-12-30T05:23:56.011Z,7.00
2018-12-30T05:26:44.263Z,7.00
2018-12-30T05:29:32.430Z,7.00
2018-12-30T05:32:13.287Z,7.00
2018-12-30T05:34:54.294Z,7.00
2018-12-30T05:37:35.251Z,7.00
2018-12-30T05:40:16.076Z,6.90
2018-12-30T05:42:56.734Z,6.90
2018-12-30T05:45:37.504Z,6.90
2018-12-30T05:48:18.431Z,6.90
2018-12-30T05:50:59.308Z,6.90
2018-12-30T05:53:28.407Z,7.00
2018-12-30T05:55:57.395Z,7.00
2018-12-30T05:58:45.506Z,6.90
2018-12-30T06:01:14.552Z,6.90
2018-12-30T06:04:02.728Z,6.90
2018-12-30T06:06:31.733Z,6.90
2018-12-30T06:09:19.904Z,6.90
2018-12-30T06:12:08.091Z,6.90
2018-12-30T06:14:56.233Z,6.90
2018-12-30T06:17:44.512Z,6.90
2018-12-30T06:20:32.703Z,6.90
2018-12-30T06:23:20.885Z,6.90
2018-12-30T06:26:09.081Z,6.90
2018-12-30T06:28:57.266Z,6.90
2018-12-30T06:31:45.458Z,6.90
2018-12-30T06:34:26.069Z,6.90
2018-12-30T06:37:06.763Z,6.90
2018-12-30T06:39:47.941Z,6.90
2018-12-30T06:42:28.729Z,6.90
2018-12-30T06:45:09.715Z,6.90
2018-12-30T06:47:50.585Z,6.90
2018-12-30T06:50:31.312Z,6.90
2018-12-30T06:53:12.165Z,6.90
2018-12-30T06:55:52.967Z,6.90
2018-12-30T06:58:34.079Z,7.00
2018-12-30T07:01:14.888Z,7.00
2018-12-30T07:03:55.745Z,6.90
2018-12-30T07:06:38.327Z,7.00
2018-12-30T07:09:19.269Z,7.00
2018-12-30T07:12:00.137Z,7.00
2018-12-30T07:14:40.971Z,7.00
2018-12-30T07:17:22.071Z,7.00
2018-12-30T07:20:02.942Z,7.00
2018-12-30T07:22:44.262Z,7.00
2018-12-30T07:25:25.343Z,7.00
2018-12-30T07:28:05.923Z,7.00
2018-12-30T07:30:46.831Z,6.90
2018-12-30T07:33:27.429Z,6.90
2018-12-30T07:36:08.027Z,7.00
2018-12-30T07:38:49.259Z,7.00
2018-12-30T07:41:30.030Z,7.00
2018-12-30T07:44:11.661Z,7.00
2018-12-30T07:46:52.435Z,7.00
2018-12-30T07:49:33.182Z,7.00
2018-12-30T07:52:14.431Z,7.00
2018-12-30T07:54:55.048Z,7.00
2018-12-30T07:57:35.929Z,7.00
2018-12-30T08:00:17.138Z,7.00
2018-12-30T08:02:57.784Z,7.00
2018-12-30T08:05:38.485Z,7.10
2018-12-30T08:08:19.383Z,7.10
2018-12-30T08:10:59.931Z,7.10
2018-12-30T08:13:40.927Z,7.10
2018-12-30T08:16:21.762Z,7.10
2018-12-30T08:19:02.720Z,7.10
2018-12-30T08:21:43.607Z,7.10
2018-12-30T08:24:24.834Z,7.10
2018-12-30T08:27:06.057Z,7.20
2018-12-30T08:29:47.041Z,7.20
2018-12-30T08:32:27.875Z,7.10
2018-12-30T08:35:08.761Z,7.10
2018-12-30T08:37:49.457Z,7.10
2018-12-30T08:40:30.191Z,7.10
2018-12-30T08:43:10.912Z,7.10
2018-12-30T08:45:51.686Z,7.10
2018-12-30T08:48:32.458Z,7.10
2018-12-30T08:51:13.361Z,7.10
2018-12-30T08:53:53.937Z,7.10
2018-12-30T08:56:34.984Z,7.10
2018-12-30T08:59:16.385Z,7.10
2018-12-30T09:01:57.496Z,7.20
2018-12-30T09:04:38.239Z,7.20
2018-12-30T09:07:19.024Z,7.20
2018-12-30T09:10:00.010Z,7.20
2018-12-30T09:12:40.672Z,7.20
2018-12-30T09:15:21.405Z,7.30
2018-12-30T09:18:03.934Z,7.30
2018-12-30T09:20:45.077Z,7.30
2018-12-30T09:23:26.164Z,7.30
2018-12-30T09:26:07.134Z,7.30
2018-12-30T09:28:47.783Z,7.30
2018-12-30T09:31:28.613Z,7.30
2018-12-30T09:34:09.424Z,7.30
2018-12-30T09:36:50.081Z,7.30
2018-12-30T09:39:30.923Z,7.30
2018-12-30T09:42:12.090Z,7.30
2018-12-30T09:44:53.417Z,7.30
2018-12-30T09:47:34.220Z,7.30
2018-12-30T09:50:15.085Z,7.40
2018-12-30T09:52:55.683Z,7.40
2018-12-30T09:55:36.637Z,7.50
2018-12-30T09:58:17.871Z,7.50
2018-12-30T10:00:58.495Z,7.60
2018-12-30T10:03:39.243Z,7.60
2018-12-30T10:06:20.168Z,7.70
2018-12-30T10:09:01.188Z,7.80
2018-12-30T10:11:42.355Z,7.80
2018-12-30T10:14:23.294Z,7.80
2018-12-30T10:17:04.030Z,7.80
2018-12-30T10:19:44.658Z,7.80
2018-12-30T10:22:25.510Z,7.80
2018-12-30T10:25:06.243Z,7.80
2018-12-30T10:27:46.932Z,7.80
2018-12-30T10:30:27.698Z,7.80
2018-12-30T10:32:57.012Z,7.80
2018-12-30T10:35:38.078Z,7.80
2018-12-30T10:38:19.070Z,7.80
2018-12-30T10:40:59.463Z,7.80
2018-12-30T10:43:40.165Z,7.80
2018-12-30T10:46:20.818Z,7.80
2018-12-30T10:49:01.804Z,7.80
2018-12-30T10:51:42.165Z,7.80
2018-12-30T10:54:23.207Z,7.80
2018-12-30T10:57:03.946Z,7.80
2018-12-30T10:59:45.115Z,7.80
2018-12-30T11:02:26.195Z,7.70
2018-12-30T11:05:06.939Z,7.70
2018-12-30T11:07:48.106Z,7.70
2018-12-30T11:10:28.762Z,7.70
2018-12-30T11:13:09.527Z,7.70
2018-12-30T11:15:50.357Z,7.80
2018-12-30T11:18:31.087Z,7.80
2018-12-30T11:21:11.932Z,7.80
2018-12-30T11:23:52.713Z,7.80
2018-12-30T11:26:33.671Z,7.80
2018-12-30T11:29:14.984Z,7.80
2018-12-30T11:31:56.095Z,7.80
2018-12-30T11:34:36.969Z,7.90
2018-12-30T11:37:17.961Z,7.90
2018-12-30T11:39:59.022Z,7.80
2018-12-30T11:42:39.782Z,7.90
2018-12-30T11:45:20.792Z,7.90
2018-12-30T11:48:03.695Z,7.90
2018-12-30T11:50:44.060Z,7.90
2018-12-30T11:53:24.828Z,7.90
2018-12-30T11:56:05.606Z,7.90
2018-12-30T11:58:46.385Z,7.90
2018-12-30T12:01:27.516Z,7.90
2018-12-30T12:04:07.881Z,7.90
2018-12-30T12:06:48.980Z,8.00
2018-12-30T12:09:30.285Z,8.00
2018-12-30T12:12:11.083Z,8.10
2018-12-30T12:14:52.060Z,8.10
2018-12-30T12:17:32.925Z,8.10
2018-12-30T12:20:13.713Z,8.10
2018-12-30T12:22:54.855Z,8.10
2018-12-30T12:25:35.564Z,8.10
2018-12-30T12:28:16.789Z,8.20
2018-12-30T12:30:57.883Z,8.20
2018-12-30T12:33:38.792Z,8.10
2018-12-30T12:36:19.956Z,8.10
2018-12-30T12:39:00.409Z,8.10
2018-12-30T12:41:41.647Z,8.10
2018-12-30T12:44:22.502Z,8.10
2018-12-30T12:47:03.207Z,8.10
2018-12-30T12:49:43.970Z,8.10
2018-12-30T12:52:24.854Z,8.20
2018-12-30T12:55:05.722Z,8.10
2018-12-30T12:57:46.599Z,8.10
2018-12-30T13:00:27.416Z,8.10
2018-12-30T13:03:08.345Z,8.20
2018-12-30T13:05:48.948Z,8.10
2018-12-30T13:08:29.591Z,8.10
2018-12-30T13:11:10.384Z,8.10
2018-12-30T13:13:50.071Z,8.20
2018-12-30T13:16:38.568Z,8.20
2018-12-30T13:19:26.728Z,8.20
2018-12-30T13:22:14.878Z,8.20
2018-12-30T13:25:03.059Z,8.30
2018-12-30T13:27:51.212Z,8.30
2018-12-30T13:30:39.474Z,8.20
2018-12-30T13:33:27.568Z,8.30
2018-12-30T13:36:08.126Z,8.20
2018-12-30T13:38:49.027Z,8.20
2018-12-30T13:41:30.196Z,8.20
2018-12-30T13:44:02.331Z,8.20
2018-12-30T13:46:31.468Z,8.20
2018-12-30T13:49:19.757Z,8.20
2018-12-30T13:51:49.004Z,8.20
2018-12-30T13:54:18.650Z,8.30
2018-12-30T13:56:47.848Z,8.30
2018-12-30T13:59:20.347Z,8.30
2018-12-30T14:01:49.448Z,8.20
2018-12-30T14:04:18.943Z,8.20
2018-12-30T14:07:07.127Z,8.10
2018-12-30T14:09:55.313Z,8.10
2018-12-30T14:12:43.717Z,8.10
2018-12-30T14:15:31.857Z,8.10
2018-12-30T14:21:27.105Z,8.00
2018-12-30T14:24:15.305Z,8.00
2018-12-30T14:27:04.253Z,8.00
2018-12-30T14:29:52.444Z,8.00
2018-12-30T14:32:41.289Z,8.00
2018-12-30T14:35:29.508Z,8.00
2018-12-30T14:38:10.498Z,8.00
2018-12-30T14:40:51.736Z,8.00
2018-12-30T14:43:32.366Z,7.90
2018-12-30T14:46:12.798Z,7.90
2018-12-30T14:48:54.022Z,7.90
2018-12-30T14:51:34.692Z,7.90
2018-12-30T14:54:15.974Z,7.80
2018-12-30T14:56:56.741Z,7.80
2018-12-30T14:59:37.789Z,7.80
2018-12-30T15:02:18.953Z,7.80
2018-12-30T15:04:59.450Z,7.80
2018-12-30T15:07:40.084Z,7.70
2018-12-30T15:10:20.658Z,7.70
2018-12-30T15:13:01.326Z,7.70
2018-12-30T15:15:41.868Z,7.70
2018-12-30T15:18:22.953Z,7.70
2018-12-30T15:21:03.836Z,7.70
2018-12-30T15:23:44.834Z,7.70
2018-12-30T15:26:26.066Z,7.70
2018-12-30T15:29:07.683Z,7.70
2018-12-30T15:31:47.054Z,7.60
2018-12-30T15:34:35.332Z,7.70
2018-12-30T15:37:16.817Z,7.60
2018-12-30T15:39:57.757Z,7.70
2018-12-30T15:42:38.695Z,7.60
2018-12-30T15:45:19.834Z,7.60
2018-12-30T15:48:00.849Z,7.60
2018-12-30T15:50:42.314Z,7.60
2018-12-30T15:53:21.773Z,7.60
2018-12-30T15:56:11.026Z,7.60
2018-12-30T15:59:00.743Z,7.60
2018-12-30T16:01:50.310Z,7.60
2018-12-30T16:04:39.100Z,7.60
2018-12-30T16:07:28.008Z,7.60
2018-12-30T16:10:16.325Z,7.60
2018-12-30T16:15:58.775Z,7.60
2018-12-30T16:18:46.884Z,7.60
2018-12-30T16:21:35.041Z,7.60
2018-12-30T16:24:23.231Z,7.60
2018-12-30T16:27:11.391Z,7.60
2018-12-30T16:35:35.223Z,7.70
2018-12-30T16:38:15.606Z,7.60
2018-12-30T16:40:56.886Z,7.60
2018-12-30T16:43:37.909Z,7.60
2018-12-30T16:46:18.647Z,7.60
2018-12-30T16:48:59.397Z,7.60
2018-12-30T16:51:40.176Z,7.60
2018-12-30T16:54:21.138Z,7.60
2018-12-30T16:57:02.696Z,7.60
2018-12-30T16:59:44.699Z,7.60
2018-12-30T17:02:25.866Z,7.60
2018-12-30T17:05:06.469Z,7.50
2018-12-30T17:07:47.811Z,7.50
2018-12-30T17:10:28.535Z,7.50
2018-12-30T17:13:09.367Z,7.50
2018-12-30T17:15:50.499Z,7.50
2018-12-30T17:18:31.938Z,7.50
2018-12-30T17:21:13.213Z,7.50
2018-12-30T17:23:54.098Z,7.50
2018-12-30T17:26:35.787Z,7.50
2018-12-30T17:29:17.340Z,7.40
2018-12-30T17:31:57.921Z,7.40
2018-12-30T17:34:39.056Z,7.40
2018-12-30T17:37:08.067Z,7.40
2018-12-30T17:42:44.196Z,7.40
2018-12-30T17:45:32.519Z,7.40
2018-12-30T17:48:20.829Z,7.40
2018-12-30T17:51:08.924Z,7.40
2018-12-30T17:53:57.098Z,7.40
2018-12-30T17:56:45.276Z,7.40
2018-12-30T17:59:33.602Z,7.40
2018-12-30T18:02:02.749Z,7.40
2018-12-30T18:04:31.853Z,7.30
2018-12-30T18:07:20.076Z,7.30
2018-12-30T18:10:08.240Z,7.30
2018-12-30T18:12:56.453Z,7.30
2018-12-30T18:15:44.602Z,7.30
2018-12-30T18:18:32.801Z,7.30
2018-12-30T18:21:22.648Z,7.30
2018-12-30T18:23:51.973Z,7.30
2018-12-30T18:26:47.141Z,7.30
2018-12-30T18:29:35.335Z,7.30
2018-12-30T18:32:23.440Z,7.30
2018-12-30T18:35:11.642Z,7.30
2018-12-30T18:37:52.949Z,7.30
2018-12-30T18:40:33.928Z,7.20
2018-12-30T18:43:14.889Z,7.20
2018-12-30T18:45:55.446Z,7.20
2018-12-30T18:48:36.412Z,7.20
2018-12-30T18:51:18.015Z,7.20
2018-12-30T18:53:58.664Z,7.20
2018-12-30T18:56:39.325Z,7.20
2018-12-30T18:59:19.951Z,7.20
2018-12-30T19:02:02.224Z,7.10
2018-12-30T19:04:43.489Z,7.10
2018-12-30T19:07:24.022Z,7.10
2018-12-30T19:10:05.112Z,7.10
2018-12-30T19:12:45.549Z,7.10
2018-12-30T19:15:24.777Z,7.10
2018-12-30T19:18:12.947Z,7.10
2018-12-30T19:21:01.101Z,7.00
2018-12-30T19:26:43.442Z,7.00
2018-12-30T19:29:31.997Z,7.00
2018-12-30T19:32:20.537Z,7.00
2018-12-30T19:35:08.737Z,7.00
2018-12-30T19:37:49.839Z,7.00
2018-12-30T19:40:30.432Z,7.00
2018-12-30T19:43:11.294Z,6.90
2018-12-30T19:45:52.161Z,7.00
2018-12-30T19:48:33.052Z,7.00
2018-12-30T19:51:14.170Z,7.00
2018-12-30T19:53:54.928Z,7.00
2018-12-30T19:56:35.815Z,7.00
2018-12-30T19:59:16.835Z,7.00
2018-12-30T20:01:57.669Z,7.00
2018-12-30T20:04:40.750Z,7.00
2018-12-30T20:07:21.742Z,6.90
2018-12-30T20:10:02.303Z,6.90
2018-12-30T20:12:42.708Z,6.90
2018-12-30T20:15:23.518Z,6.90
2018-12-30T20:18:04.287Z,6.90
2018-12-30T20:20:45.363Z,6.90
2018-12-30T20:23:26.404Z,6.90
2018-12-30T20:26:07.278Z,6.90
2018-12-30T20:28:47.988Z,6.90
2018-12-30T20:31:29.011Z,6.90
2018-12-30T20:34:08.238Z,6.90
2018-12-30T20:36:56.369Z,6.90
2018-12-30T20:39:44.564Z,6.90
2018-12-30T20:42:25.506Z,6.90
2018-12-30T20:45:06.325Z,6.90
2018-12-30T20:47:47.308Z,6.90
2018-12-30T20:50:28.551Z,6.90
2018-12-30T20:53:09.432Z,6.90
2018-12-30T20:55:50.650Z,6.90
2018-12-30T20:58:31.640Z,6.90
2018-12-30T21:01:12.531Z,6.90
2018-12-30T21:03:53.061Z,6.90
2018-12-30T21:06:33.975Z,6.90
2018-12-30T21:09:14.778Z,6.90
2018-12-30T21:11:55.915Z,6.90
2018-12-30T21:14:36.789Z,6.90
2018-12-30T21:20:19.019Z,6.90
2018-12-30T21:22:59.669Z,6.90
2018-12-30T21:25:40.245Z,6.90
2018-12-30T21:28:21.330Z,6.90
2018-12-30T21:31:02.161Z,6.90
2018-12-30T21:33:43.019Z,6.90
2018-12-30T21:36:23.749Z,6.90
2018-12-30T21:39:04.884Z,6.90
2018-12-30T21:41:46.210Z,6.90
2018-12-30T21:44:27.263Z,6.90
2018-12-30T21:47:08.307Z,6.90
2018-12-30T21:49:48.875Z,6.90
2018-12-30T21:52:29.575Z,6.90
2018-12-30T21:55:10.899Z,6.90
2018-12-30T21:57:51.695Z,6.90
2018-12-30T22:00:32.776Z,6.90
2018-12-30T22:03:13.161Z,6.90
2018-12-30T22:05:53.665Z,6.90
2018-12-30T22:08:34.725Z,6.90
2018-12-30T22:11:15.875Z,6.90
2018-12-30T22:13:56.919Z,6.90
2018-12-30T22:16:38.006Z,6.90
2018-12-30T22:19:18.743Z,6.90
2018-12-30T22:21:59.901Z,6.90
2018-12-30T22:24:28.874Z,6.90
2018-12-30T22:27:17.588Z,6.90
2018-12-30T22:29:46.593Z,6.90
2018-12-30T22:32:15.694Z,6.90
2018-12-30T22:34:44.669Z,6.90
2018-12-30T22:37:13.713Z,6.90
2018-12-30T22:39:42.897Z,7.00
2018-12-30T22:42:11.987Z,7.00
2018-12-30T22:45:00.095Z,7.00
2018-12-30T22:47:48.426Z,7.00
2018-12-30T22:50:36.623Z,6.90
2018-12-30T22:53:24.792Z,7.00
2018-12-30T22:56:12.955Z,6.90
2018-12-30T22:59:01.556Z,7.00
2018-12-30T23:01:50.221Z,7.00
2018-12-30T23:04:38.726Z,7.00
2018-12-30T23:07:27.263Z,7.00
2018-12-30T23:10:15.508Z,7.00
2018-12-30T23:13:03.691Z,7.00
2018-12-30T23:15:51.905Z,7.00
2018-12-30T23:18:40.173Z,7.00
2018-12-30T23:21:28.358Z,7.00
2018-12-30T23:24:16.559Z,7.00
2018-12-30T23:27:04.964Z,7.00
2018-12-30T23:29:53.080Z,7.00
2018-12-30T23:32:41.423Z,7.00
2018-12-30T23:35:29.959Z,7.00
2018-12-30T23:38:11.597Z,7.00
2018-12-30T23:40:55.123Z,7.00
2018-12-30T23:43:36.423Z,7.00
2018-12-30T23:46:17.787Z,7.00
2018-12-30T23:48:58.370Z,7.00
2018-12-30T23:51:39.617Z,7.00
2018-12-30T23:54:20.499Z,7.00
2018-12-30T23:57:01.714Z,7.00
2018-12-30T23:59:42.038Z,7.00
